createdAt,value
2019-04-11T00:01:33.886Z,101946.56
2019-04-11T00:03:54.764Z,101947.41
2019-04-11T00:06:29.635Z,101948.73
2019-04-11T00:09:00.609Z,101939.67
2019-04-11T00:11:30.231Z,101948.92
2019-04-11T00:14:01.479Z,101951.28
2019-04-11T00:16:35.561Z,101948.74
2019-04-11T00:19:05.210Z,101945.58
2019-04-11T00:21:37.811Z,101944.19
2019-04-11T00:24:07.179Z,101943.44
2019-04-11T00:26:36.576Z,101948.24
2019-04-11T00:29:10.115Z,101955.09
2019-04-11T00:31:39.076Z,101945.25
2019-04-11T00:34:10.944Z,101953.05
2019-04-11T00:36:40.825Z,101955.34
2019-04-11T00:39:15.245Z,101956.58
2019-04-11T00:41:43.460Z,101954.73
2019-04-11T00:44:12.919Z,101957.19
2019-04-11T00:46:42.630Z,101958.09
2019-04-11T00:49:12.369Z,101960.98
2019-04-11T00:51:42.337Z,101963.08
2019-04-11T00:54:11.762Z,101962.77
2019-04-11T00:56:42.278Z,101972.86
2019-04-11T00:59:16.297Z,101971.37
2019-04-11T01:01:43.233Z,101973.28
2019-04-11T01:04:13.715Z,101966.08
2019-04-11T01:06:43.194Z,101975.55
2019-04-11T01:09:12.792Z,101967.74
2019-04-11T01:11:42.319Z,101962.60
2019-04-11T01:14:11.752Z,101969.58
2019-04-11T01:16:46.961Z,101966.58
2019-04-11T01:19:16.904Z,101964.45
2019-04-11T01:21:48.743Z,101971.30
2019-04-11T01:24:17.985Z,101966.45
2019-04-11T01:26:47.633Z,101964.59
2019-04-11T01:29:17.575Z,101972.52
2019-04-11T01:31:51.592Z,101973.07
2019-04-11T01:34:21.387Z,101973.69
2019-04-11T01:36:51.294Z,101973.05
2019-04-11T01:39:41.307Z,101979.69
2019-04-11T01:42:11.147Z,101977.84
2019-04-11T01:44:41.023Z,101976.48
2019-04-11T01:47:13.041Z,101977.00
2019-04-11T01:49:42.356Z,101985.42
2019-04-11T01:52:11.909Z,101981.18
2019-04-11T01:54:41.252Z,101983.22
2019-04-11T01:57:11.711Z,101980.22
2019-04-11T01:59:41.756Z,101983.90
2019-04-11T02:02:46.490Z,101985.75
2019-04-11T02:05:35.062Z,101982.66
2019-04-11T02:08:04.644Z,101990.84
2019-04-11T02:10:34.987Z,102002.87
2019-04-11T02:13:09.929Z,101989.37
2019-04-11T02:15:38.684Z,101987.70
2019-04-11T02:18:08.166Z,102000.91
2019-04-11T02:20:38.990Z,102001.80
2019-04-11T02:23:19.944Z,102004.57
2019-04-11T02:26:03.180Z,102006.50
2019-04-11T02:28:32.872Z,102007.73
2019-04-11T02:31:04.558Z,101999.49
2019-04-11T02:33:34.849Z,102017.48
2019-04-11T02:36:05.199Z,102010.75
2019-04-11T02:38:37.338Z,102021.42
2019-04-11T02:41:08.662Z,102012.55
2019-04-11T02:43:42.065Z,102016.51
2019-04-11T02:46:22.021Z,102009.28
2019-04-11T02:48:42.495Z,102013.34
2019-04-11T02:51:14.573Z,102021.97
2019-04-11T02:53:45.180Z,102020.94
2019-04-11T02:56:14.953Z,102016.31
2019-04-11T02:58:46.338Z,102021.33
2019-04-11T03:01:15.828Z,102026.52
2019-04-11T03:03:51.818Z,102020.30
2019-04-11T03:06:33.257Z,102021.53
2019-04-11T03:08:55.051Z,102023.06
2019-04-11T03:11:26.085Z,102025.16
2019-04-11T03:13:58.166Z,102020.64
2019-04-11T03:16:39.336Z,102023.49
2019-04-11T03:22:54.179Z,102029.34
2019-04-11T03:45:11.395Z,102035.44
2019-04-11T03:47:35.496Z,102036.34
2019-04-11T03:50:00.729Z,102047.20
2019-04-11T03:52:24.263Z,102037.53
2019-04-11T03:54:56.271Z,102041.11
2019-04-11T03:57:27.558Z,102051.55
2019-04-11T03:59:58.610Z,102041.20
2019-04-11T04:02:28.373Z,102048.83
2019-04-11T04:04:59.173Z,102053.04
2019-04-11T04:07:29.678Z,102049.16
2019-04-11T04:10:00.455Z,102045.74
2019-04-11T04:12:31.303Z,102048.01
2019-04-11T04:15:47.454Z,102057.48
2019-04-11T04:18:23.919Z,102065.18
2019-04-11T04:21:19.486Z,102067.38
2019-04-11T04:23:51.899Z,102067.47
2019-04-11T04:26:22.835Z,102073.84
2019-04-11T04:28:53.467Z,102071.09
2019-04-11T04:31:24.314Z,102073.30
2019-04-11T04:33:55.389Z,102079.12
2019-04-11T04:36:27.258Z,102082.30
2019-04-11T04:38:59.275Z,102087.22
2019-04-11T04:41:38.587Z,102087.22
2019-04-11T04:44:01.648Z,102086.25
2019-04-11T04:46:47.108Z,102090.06
2019-04-11T04:49:02.589Z,102096.12
2019-04-11T04:51:31.970Z,102098.56
2019-04-11T04:54:01.468Z,102102.45
2019-04-11T04:56:32.276Z,102106.02
2019-04-11T04:59:02.714Z,102101.96
2019-04-11T05:01:32.508Z,102115.72
2019-04-11T05:04:02.247Z,102109.02
2019-04-11T05:06:32.329Z,102111.21
2019-04-11T05:09:01.899Z,102106.84
2019-04-11T05:11:31.191Z,102111.68
2019-04-11T05:14:00.992Z,102111.03
2019-04-11T05:16:30.532Z,102124.50
2019-04-11T05:19:08.540Z,102126.94
2019-04-11T05:21:37.839Z,102118.43
2019-04-11T05:24:07.189Z,102121.50
2019-04-11T05:26:36.483Z,102123.91
2019-04-11T05:29:05.858Z,102127.41
2019-04-11T05:31:35.121Z,102126.12
2019-04-11T05:34:06.327Z,102128.22
2019-04-11T05:36:36.606Z,102128.55
2019-04-11T05:39:08.772Z,102127.48
2019-04-11T05:41:42.077Z,102129.18
2019-04-11T05:44:10.867Z,102130.95
2019-04-11T05:46:49.244Z,102137.53
2019-04-11T05:49:29.078Z,102140.75
2019-04-11T05:52:00.840Z,102141.01
2019-04-11T05:54:38.700Z,102136.60
2019-04-11T05:57:07.116Z,102140.89
2019-04-11T05:59:39.829Z,102146.80
2019-04-11T06:02:15.691Z,102146.30
2019-04-11T06:04:52.897Z,102142.88
2019-04-11T06:07:50.547Z,102153.42
2019-04-11T06:10:24.419Z,102142.63
2019-04-11T06:13:05.365Z,102147.16
2019-04-11T06:15:47.497Z,102157.22
2019-04-11T06:18:37.811Z,102158.87
2019-04-11T06:21:19.961Z,102161.12
2019-04-11T06:24:08.407Z,102171.92
2019-04-11T06:26:59.731Z,102176.05
2019-04-11T06:29:51.201Z,102167.78
2019-04-11T06:32:48.597Z,102171.78
2019-04-11T06:35:36.497Z,102166.17
2019-04-11T06:38:34.387Z,102181.28
2019-04-11T06:41:14.462Z,102174.17
2019-04-11T06:43:53.463Z,102177.47
2019-04-11T06:46:54.086Z,102183.52
2019-04-11T06:49:36.817Z,102184.20
2019-04-11T06:52:08.558Z,102175.53
2019-04-11T06:55:10.870Z,102178.98
2019-04-11T06:57:56.353Z,102187.28
2019-04-11T07:00:27.995Z,102175.14
2019-04-11T07:02:59.903Z,102183.20
2019-04-11T07:05:31.209Z,102175.63
2019-04-11T07:08:05.556Z,102178.89
2019-04-11T07:14:22.489Z,102181.66
2019-04-11T07:17:10.615Z,102182.70
2019-04-11T07:19:58.244Z,102179.94
2019-04-11T07:22:45.209Z,102188.95
2019-04-11T07:25:39.524Z,102185.83
2019-04-11T07:28:50.264Z,102193.83
2019-04-11T07:31:44.613Z,102186.96
2019-04-11T07:34:39.658Z,102187.26
2019-04-11T07:37:36.794Z,102182.29
2019-04-11T07:40:35.329Z,102178.20
2019-04-11T07:43:22.544Z,102178.56
2019-04-11T07:46:26.881Z,102184.05
2019-04-11T07:49:01.878Z,102187.28
2019-04-11T07:51:32.682Z,102187.55
2019-04-11T07:54:07.025Z,102191.12
2019-04-11T07:57:04.853Z,102188.28
2019-04-11T07:59:53.399Z,102190.32
2019-04-11T08:02:45.609Z,102192.05
2019-04-11T08:05:44.619Z,102188.32
2019-04-11T08:08:32.404Z,102192.29
2019-04-11T08:11:47.808Z,102195.26
2019-04-11T08:14:39.025Z,102201.31
2019-04-11T08:17:30.020Z,102200.70
2019-04-11T08:20:09.899Z,102199.52
2019-04-11T08:22:51.478Z,102202.58
2019-04-11T08:25:47.316Z,102202.96
2019-04-11T08:28:17.034Z,102204.08
2019-04-11T08:31:11.366Z,102196.87
2019-04-11T08:34:15.193Z,102200.12
2019-04-11T08:44:26.000Z,102205.36
2019-04-11T08:53:44.951Z,102206.03
2019-04-11T08:56:40.301Z,102204.58
2019-04-11T08:59:47.969Z,102197.53
2019-04-11T09:05:33.223Z,102196.59
2019-04-11T09:11:40.625Z,102194.52
2019-04-11T09:17:38.765Z,102205.22
2019-04-11T09:20:46.261Z,102209.43
2019-04-11T09:23:21.762Z,102205.12
2019-04-11T09:26:11.857Z,102198.15
2019-04-11T09:28:54.466Z,102204.11
2019-04-11T09:31:58.029Z,102199.87
2019-04-11T09:37:40.017Z,102200.27
2019-04-11T09:40:28.045Z,102198.50
2019-04-11T09:43:15.818Z,102195.03
2019-04-11T09:46:06.550Z,102205.08
2019-04-11T09:48:51.846Z,102196.91
2019-04-11T09:51:40.429Z,102193.77
2019-04-11T09:54:33.644Z,102192.03
2019-04-11T09:57:28.970Z,102192.19
2019-04-11T10:00:18.460Z,102190.95
2019-04-11T10:03:08.732Z,102185.91
2019-04-11T10:06:15.941Z,102187.54
2019-04-11T10:08:49.502Z,102183.78
2019-04-11T10:11:37.925Z,102190.45
2019-04-11T10:14:13.539Z,102193.88
2019-04-11T10:17:04.454Z,102187.14
2019-04-11T10:19:42.433Z,102194.49
2019-04-11T10:22:34.096Z,102190.34
2019-04-11T10:25:16.878Z,102187.23
2019-04-11T10:28:15.456Z,102190.95
2019-04-11T10:31:06.367Z,102190.41
2019-04-11T10:33:57.882Z,102185.98
2019-04-11T10:36:43.909Z,102186.48
2019-04-11T10:39:31.333Z,102181.25
2019-04-11T10:42:04.297Z,102191.42
2019-04-11T10:45:08.052Z,102190.92
2019-04-11T10:47:51.353Z,102185.17
2019-04-11T10:50:38.427Z,102191.48
2019-04-11T10:53:37.330Z,102191.66
2019-04-11T10:56:06.712Z,102187.22
2019-04-11T10:58:55.438Z,102186.16
2019-04-11T11:01:48.402Z,102193.30
2019-04-11T11:05:17.928Z,102179.33
2019-04-11T11:07:55.179Z,102187.88
2019-04-11T11:10:31.329Z,102192.16
2019-04-11T11:13:27.022Z,102186.98
2019-04-11T11:15:58.263Z,102187.87
2019-04-11T11:19:29.907Z,102188.56
2019-04-11T11:21:37.460Z,102195.16
2019-04-11T11:24:50.386Z,102180.66
2019-04-11T11:27:22.237Z,102171.56
2019-04-11T11:30:13.866Z,102189.13
2019-04-11T11:32:45.571Z,102192.05
2019-04-11T11:35:49.968Z,102185.59
2019-04-11T11:38:23.969Z,102194.89
2019-04-11T11:41:20.678Z,102195.80
2019-04-11T11:43:48.711Z,102186.61
2019-04-11T11:46:40.650Z,102187.94
2019-04-11T11:49:37.669Z,102193.06
2019-04-11T11:52:11.255Z,102191.73
2019-04-11T11:54:48.186Z,102200.24
2019-04-11T11:57:22.747Z,102192.25
2019-04-11T12:00:17.092Z,102187.97
2019-04-11T12:02:53.787Z,102182.61
2019-04-11T12:05:32.846Z,102197.25
2019-04-11T12:08:33.043Z,102185.48
2019-04-11T12:11:06.064Z,102190.13
2019-04-11T12:14:12.634Z,102185.83
2019-04-11T12:17:01.982Z,102190.33
2019-04-11T12:19:45.678Z,102189.76
2019-04-11T12:22:04.365Z,102177.95
2019-04-11T12:24:42.841Z,102191.49
2019-04-11T12:27:37.131Z,102178.86
2019-04-11T12:30:37.810Z,102172.15
2019-04-11T12:33:14.027Z,102174.95
2019-04-11T12:35:48.656Z,102177.21
2019-04-11T12:38:43.157Z,102173.67
2019-04-11T12:41:25.631Z,102170.63
2019-04-11T12:44:13.906Z,102164.30
2019-04-11T12:47:20.413Z,102174.06
2019-04-11T12:50:07.518Z,102173.42
2019-04-11T12:52:51.105Z,102173.25
2019-04-11T12:55:28.872Z,102174.98
2019-04-11T12:58:16.262Z,102173.05
2019-04-11T13:00:55.615Z,102172.63
2019-04-11T13:03:42.708Z,102160.00
2019-04-11T13:07:00.641Z,102161.09
2019-04-11T13:10:40.204Z,102169.02
2019-04-11T13:12:49.596Z,102169.63
2019-04-11T13:15:25.140Z,102154.48
2019-04-11T13:18:22.562Z,102149.47
2019-04-11T13:21:42.981Z,102151.24
2019-04-11T13:24:47.519Z,102148.98
2019-04-11T13:27:39.186Z,102156.91
2019-04-11T13:30:29.297Z,102155.06
2019-04-11T13:33:00.908Z,102145.43
2019-04-11T13:38:47.664Z,102151.52
2019-04-11T13:41:50.646Z,102151.28
2019-04-11T13:44:30.839Z,102139.06
2019-04-11T13:47:29.595Z,102150.77
2019-04-11T13:50:04.065Z,102143.80
2019-04-11T13:52:53.313Z,102137.52
2019-04-11T13:55:27.996Z,102143.40
2019-04-11T13:58:15.356Z,102145.18
2019-04-11T14:01:21.623Z,102137.28
2019-04-11T14:04:38.640Z,102135.52
2019-04-11T14:07:30.154Z,102134.34
2019-04-11T14:10:25.620Z,102144.14
2019-04-11T14:13:07.376Z,102127.27
2019-04-11T14:15:47.228Z,102114.89
2019-04-11T14:18:42.277Z,102119.78
2019-04-11T14:21:15.869Z,102116.78
2019-04-11T14:26:49.676Z,102126.14
2019-04-11T14:29:49.709Z,102124.76
2019-04-11T14:32:35.182Z,102124.68
2019-04-11T14:35:18.137Z,102128.15
2019-04-11T14:39:14.750Z,102121.38
2019-04-11T14:41:13.933Z,102122.23
2019-04-11T14:43:51.267Z,102113.92
2019-04-11T14:47:16.832Z,102124.03
2019-04-11T14:50:24.534Z,102119.95
2019-04-11T14:53:16.927Z,102119.54
2019-04-11T14:55:48.986Z,102125.19
2019-04-11T14:58:35.488Z,102114.33
2019-04-11T15:01:07.829Z,102115.57
2019-04-11T15:03:54.631Z,102115.87
2019-04-11T15:06:37.152Z,102110.78
2019-04-11T15:09:32.279Z,102115.63
2019-04-11T15:12:20.788Z,102120.75
2019-04-11T15:15:21.541Z,102117.55
2019-04-11T15:17:57.200Z,102120.68
2019-04-11T15:20:55.916Z,102123.44
2019-04-11T15:23:31.166Z,102123.09
2019-04-11T15:26:18.882Z,102122.33
2019-04-11T15:29:13.598Z,102118.26
2019-04-11T15:32:00.645Z,102108.94
2019-04-11T15:34:35.836Z,102114.25
2019-04-11T15:37:28.103Z,102119.86
2019-04-11T15:40:11.890Z,102119.07
2019-04-11T15:42:58.835Z,102108.48
2019-04-11T15:45:46.481Z,102129.55
2019-04-11T15:48:37.164Z,102131.63
2019-04-11T15:51:43.761Z,102120.66
2019-04-11T15:54:32.056Z,102138.78
2019-04-11T15:57:20.280Z,102132.80
2019-04-11T16:00:07.232Z,102138.31
2019-04-11T16:02:58.746Z,102138.67
2019-04-11T16:05:49.964Z,102143.11
2019-04-11T16:08:43.452Z,102141.47
2019-04-11T16:11:29.224Z,102145.91
2019-04-11T16:14:05.267Z,102146.56
2019-04-11T16:17:02.865Z,102150.33
2019-04-11T16:19:50.123Z,102143.62
2019-04-11T16:22:55.374Z,102151.58
2019-04-11T16:25:28.940Z,102148.05
2019-04-11T16:28:13.833Z,102150.10
2019-04-11T16:30:52.626Z,102146.22
2019-04-11T16:33:54.348Z,102148.06
2019-04-11T16:36:38.854Z,102154.96
2019-04-11T16:39:41.621Z,102149.28
2019-04-11T16:42:36.358Z,102148.29
2019-04-11T16:45:42.992Z,102151.43
2019-04-11T16:53:52.792Z,102150.75
2019-04-11T16:56:37.613Z,102155.66
2019-04-11T17:01:06.667Z,102157.44
2019-04-11T17:02:24.269Z,102159.08
2019-04-11T17:04:41.079Z,102155.47
2019-04-11T17:07:29.451Z,102157.98
2019-04-11T17:10:02.626Z,102151.22
2019-04-11T17:12:30.731Z,102157.69
2019-04-11T17:15:01.666Z,102153.40
2019-04-11T17:17:37.329Z,102159.80
2019-04-11T17:20:08.488Z,102160.30
2019-04-11T17:22:37.982Z,102165.91
2019-04-11T17:25:19.784Z,102160.58
2019-04-11T17:27:39.240Z,102163.06
2019-04-11T17:30:14.949Z,102165.05
2019-04-11T17:32:46.397Z,102172.48
2019-04-11T17:35:19.950Z,102176.08
2019-04-11T17:37:49.285Z,102173.73
2019-04-11T17:40:18.614Z,102177.41
2019-04-11T17:42:48.051Z,102180.19
2019-04-11T17:45:31.915Z,102178.16
2019-04-11T17:47:50.379Z,102180.66
2019-04-11T17:50:22.939Z,102181.45
2019-04-11T17:56:49.895Z,102186.03
2019-04-11T17:59:06.656Z,102185.80
2019-04-11T18:01:39.207Z,102194.82
2019-04-11T18:05:11.195Z,102197.50
2019-04-11T18:06:47.081Z,102198.16
2019-04-11T18:09:13.103Z,102200.49
2019-04-11T18:12:07.816Z,102204.66
2019-04-11T18:17:52.174Z,102210.21
2019-04-11T18:20:21.801Z,102216.22
2019-04-11T18:22:51.320Z,102220.19
2019-04-11T18:25:21.479Z,102219.61
2019-04-11T18:27:53.305Z,102222.58
2019-04-11T18:30:23.341Z,102219.32
2019-04-11T18:32:53.268Z,102217.37
2019-04-11T18:35:22.664Z,102226.77
2019-04-11T18:37:52.066Z,102226.20
2019-04-11T18:40:23.756Z,102231.14
2019-04-11T18:42:53.124Z,102237.90
2019-04-11T18:51:38.493Z,102237.42
2019-04-11T18:54:34.666Z,102253.89
2019-04-11T18:57:04.162Z,102243.26
2019-04-11T18:59:33.991Z,102248.73
2019-04-11T19:02:04.022Z,102255.50
2019-04-11T19:04:33.355Z,102256.92
2019-04-11T19:07:46.930Z,102252.47
2019-04-11T19:10:16.357Z,102257.71
2019-04-11T19:12:46.425Z,102259.69
2019-04-11T19:15:17.095Z,102259.55
2019-04-11T19:17:47.178Z,102260.81
2019-04-11T19:20:19.133Z,102263.20
2019-04-11T19:22:48.024Z,102269.63
2019-04-11T19:25:17.376Z,102265.82
2019-04-11T19:27:50.452Z,102271.31
2019-04-11T19:30:17.794Z,102272.17
2019-04-11T19:32:47.138Z,102274.26
2019-04-11T19:35:16.665Z,102271.73
2019-04-11T19:37:46.028Z,102277.06
2019-04-11T19:40:16.426Z,102280.98
2019-04-11T19:42:48.874Z,102279.44
2019-04-11T19:45:24.100Z,102286.30
2019-04-11T19:48:01.602Z,102281.64
2019-04-11T19:50:34.765Z,102277.92
2019-04-11T19:53:18.828Z,102282.09
2019-04-11T19:56:05.903Z,102282.94
2019-04-11T19:58:35.355Z,102291.14
2019-04-11T20:01:12.453Z,102288.44
2019-04-11T20:03:40.684Z,102284.63
2019-04-11T20:06:10.292Z,102289.63
2019-04-11T20:08:47.731Z,102283.38
2019-04-11T20:11:30.038Z,102280.41
2019-04-11T20:14:02.890Z,102288.75
2019-04-11T20:16:28.640Z,102297.94
2019-04-11T20:19:05.954Z,102289.52
2019-04-11T20:21:41.134Z,102289.11
2019-04-11T20:24:14.369Z,102284.02
2019-04-11T20:26:50.848Z,102294.17
2019-04-11T20:29:21.378Z,102289.89
2019-04-11T20:31:59.263Z,102289.08
2019-04-11T20:34:30.246Z,102291.87
2019-04-11T20:37:02.915Z,102285.97
2019-04-11T20:39:33.529Z,102281.83
2019-04-11T20:42:03.318Z,102282.09
2019-04-11T20:44:34.837Z,102275.15
2019-04-11T20:47:07.772Z,102282.72
2019-04-11T20:49:46.042Z,102285.05
2019-04-11T20:52:15.674Z,102282.89
2019-04-11T20:54:48.753Z,102286.63
2019-04-11T20:57:25.923Z,102282.79
2019-04-11T20:59:55.147Z,102289.36
2019-04-11T21:02:28.313Z,102287.11
2019-04-11T21:04:56.353Z,102289.17
2019-04-11T21:07:25.749Z,102292.99
2019-04-11T21:09:56.462Z,102295.33
2019-04-11T21:12:27.536Z,102294.48
2019-04-11T21:14:57.029Z,102288.89
2019-04-11T21:17:35.629Z,102299.32
2019-04-11T21:20:31.809Z,102290.73
2019-04-11T21:23:31.456Z,102294.30
2019-04-11T21:26:34.046Z,102293.64
2019-04-11T21:29:33.568Z,102294.03
2019-04-11T21:32:55.697Z,102304.73
2019-04-11T21:35:25.185Z,102304.70
2019-04-11T21:37:54.531Z,102306.80
2019-04-11T21:40:23.961Z,102306.70
2019-04-11T21:42:54.864Z,102314.23
2019-04-11T21:45:24.275Z,102309.56
2019-04-11T21:47:53.612Z,102305.80
2019-04-11T21:50:23.061Z,102304.84
2019-04-11T21:52:52.408Z,102310.17
2019-04-11T21:55:21.761Z,102309.92
2019-04-11T21:57:51.118Z,102309.82
2019-04-11T22:00:29.642Z,102308.47
2019-04-11T22:02:59.112Z,102313.97
2019-04-11T22:05:29.245Z,102313.28
2019-04-11T22:08:00.884Z,102321.25
2019-04-11T22:10:30.249Z,102308.56
2019-04-11T22:12:59.570Z,102318.84
2019-04-11T22:15:28.932Z,102322.21
2019-04-11T22:17:58.296Z,102317.89
2019-04-11T22:20:30.205Z,102303.27
2019-04-11T22:22:59.507Z,102318.91
2019-04-11T22:25:28.894Z,102314.23
2019-04-11T22:27:58.241Z,102315.63
2019-04-11T22:30:27.537Z,102317.79
2019-04-11T22:33:01.340Z,102318.39
2019-04-11T22:35:30.682Z,102318.19
2019-04-11T22:38:00.406Z,102321.74
2019-04-11T22:40:31.462Z,102325.05
2019-04-11T22:43:00.682Z,102314.97
2019-04-11T22:45:29.999Z,102317.86
2019-04-11T22:47:59.298Z,102323.80
2019-04-11T22:50:28.673Z,102317.83
2019-04-11T22:52:58.099Z,102317.53
2019-04-11T22:55:27.468Z,102320.34
2019-04-11T22:57:56.795Z,102317.16
2019-04-11T23:00:26.148Z,102319.42
2019-04-11T23:03:17.637Z,102317.89
2019-04-11T23:05:47.522Z,102312.89
2019-04-11T23:08:19.068Z,102310.66
2019-04-11T23:10:47.907Z,102323.00
2019-04-11T23:13:17.207Z,102323.08
2019-04-11T23:15:46.543Z,102318.70
2019-04-11T23:18:15.840Z,102318.73
2019-04-11T23:20:45.167Z,102326.56
2019-04-11T23:23:14.556Z,102326.09
2019-04-11T23:25:43.953Z,102321.39
2019-04-11T23:28:15.575Z,102327.41
2019-04-11T23:30:44.258Z,102324.60
2019-04-11T23:33:13.556Z,102327.54
2019-04-11T23:35:42.928Z,102334.66
2019-04-11T23:38:12.212Z,102338.48
2019-04-11T23:40:41.557Z,102339.88
2019-04-11T23:43:10.856Z,102337.45
2019-04-11T23:45:40.201Z,102338.32
2019-04-11T23:48:09.503Z,102342.71
2019-04-11T23:50:38.822Z,102344.48
2019-04-11T23:53:08.095Z,102348.05
2019-04-11T23:55:37.443Z,102353.10
2019-04-11T23:58:06.780Z,102346.84
